sensor_id;sensor_type;location;lat;lon;timestamp;pressure;altitude;pressure_sealevel;temperature;humidity
38880;BME280;25887;30.194;-97.880;2024-01-07T00:00:49;98359.75;;;17.30;43.58
38880;BME280;25887;30.194;-97.880;2024-01-07T00:03:15;98372.84;;;17.25;43.39
38880;BME280;25887;30.194;-97.880;2024-01-07T00:05:42;98373.00;;;17.19;43.50
38880;BME280;25887;30.194;-97.880;2024-01-07T00:08:08;98372.28;;;17.14;43.58
38880;BME280;25887;30.194;-97.880;2024-01-07T00:10:34;98377.59;;;17.10;43.70
38880;BME280;25887;30.194;-97.880;2024-01-07T00:13:01;98391.50;;;17.07;43.69
38880;BME280;25887;30.194;-97.880;2024-01-07T00:15:27;98401.19;;;17.01;43.64
38880;BME280;25887;30.194;-97.880;2024-01-07T00:17:53;98406.53;;;16.94;43.56
38880;BME280;25887;30.194;-97.880;2024-01-07T00:20:19;98408.41;;;16.89;43.65
38880;BME280;25887;30.194;-97.880;2024-01-07T00:22:46;98421.47;;;16.85;43.91
38880;BME280;25887;30.194;-97.880;2024-01-07T00:25:15;98421.63;;;16.79;43.90
38880;BME280;25887;30.194;-97.880;2024-01-07T00:27:41;98427.78;;;16.75;44.17
38880;BME280;25887;30.194;-97.880;2024-01-07T00:30:07;98434.84;;;16.68;44.02
38880;BME280;25887;30.194;-97.880;2024-01-07T00:32:34;98438.38;;;16.64;44.42
38880;BME280;25887;30.194;-97.880;2024-01-07T00:35:00;98441.06;;;16.61;44.02
38880;BME280;25887;30.194;-97.880;2024-01-07T00:37:26;98434.25;;;16.55;44.32
38880;BME280;25887;30.194;-97.880;2024-01-07T00:39:52;98446.50;;;16.49;44.13
38880;BME280;25887;30.194;-97.880;2024-01-07T00:42:19;98445.75;;;16.45;44.27
38880;BME280;25887;30.194;-97.880;2024-01-07T00:44:45;98453.59;;;16.40;44.32
38880;BME280;25887;30.194;-97.880;2024-01-07T00:47:11;98465.84;;;16.34;44.61
38880;BME280;25887;30.194;-97.880;2024-01-07T00:49:37;98470.44;;;16.23;44.46
38880;BME280;25887;30.194;-97.880;2024-01-07T00:52:05;98490.41;;;16.17;44.44
38880;BME280;25887;30.194;-97.880;2024-01-07T00:54:32;98487.97;;;16.11;44.74
38880;BME280;25887;30.194;-97.880;2024-01-07T00:56:58;98496.66;;;16.07;44.43
38880;BME280;25887;30.194;-97.880;2024-01-07T00:59:24;98499.38;;;16.01;44.66
38880;BME280;25887;30.194;-97.880;2024-01-07T01:01:50;98505.50;;;15.97;44.68
38880;BME280;25887;30.194;-97.880;2024-01-07T01:04:17;98506.56;;;15.88;45.24
38880;BME280;25887;30.194;-97.880;2024-01-07T01:06:43;98521.34;;;15.82;45.02
38880;BME280;25887;30.194;-97.880;2024-01-07T01:09:09;98529.25;;;15.74;44.95
38880;BME280;25887;30.194;-97.880;2024-01-07T01:11:36;98515.53;;;15.69;45.20
38880;BME280;25887;30.194;-97.880;2024-01-07T01:14:02;98536.28;;;15.68;45.13
38880;BME280;25887;30.194;-97.880;2024-01-07T01:16:28;98532.03;;;15.64;45.29
38880;BME280;25887;30.194;-97.880;2024-01-07T01:18:55;98538.97;;;15.62;45.29
38880;BME280;25887;30.194;-97.880;2024-01-07T01:21:21;98551.13;;;15.58;45.53
38880;BME280;25887;30.194;-97.880;2024-01-07T01:23:48;98558.06;;;15.54;45.38
38880;BME280;25887;30.194;-97.880;2024-01-07T01:26:15;98570.25;;;15.49;45.51
38880;BME280;25887;30.194;-97.880;2024-01-07T01:28:41;98576.41;;;15.42;45.55
38880;BME280;25887;30.194;-97.880;2024-01-07T01:31:07;98577.31;;;15.38;45.34
38880;BME280;25887;30.194;-97.880;2024-01-07T01:33:33;98585.97;;;15.37;45.49
38880;BME280;25887;30.194;-97.880;2024-01-07T01:36:04;98587.78;;;15.33;45.72
38880;BME280;25887;30.194;-97.880;2024-01-07T01:38:32;98587.00;;;15.27;45.67
38880;BME280;25887;30.194;-97.880;2024-01-07T01:40:58;98594.78;;;15.24;45.99
38880;BME280;25887;30.194;-97.880;2024-01-07T01:43:28;98598.28;;;15.23;45.69
38880;BME280;25887;30.194;-97.880;2024-01-07T01:45:57;98606.09;;;15.20;46.04
38880;BME280;25887;30.194;-97.880;2024-01-07T01:48:25;98611.31;;;15.18;45.93
38880;BME280;25887;30.194;-97.880;2024-01-07T01:50:53;98620.78;;;15.16;45.97
38880;BME280;25887;30.194;-97.880;2024-01-07T01:53:22;98623.44;;;15.13;45.95
38880;BME280;25887;30.194;-97.880;2024-01-07T01:55:48;98630.38;;;15.11;45.87
38880;BME280;25887;30.194;-97.880;2024-01-07T01:58:16;98635.56;;;15.08;46.04
38880;BME280;25887;30.194;-97.880;2024-01-07T02:00:44;98635.59;;;15.07;46.14
38880;BME280;25887;30.194;-97.880;2024-01-07T02:03:10;98640.84;;;15.03;46.40
38880;BME280;25887;30.194;-97.880;2024-01-07T02:05:36;98637.38;;;15.03;46.32
38880;BME280;25887;30.194;-97.880;2024-01-07T02:08:04;98641.72;;;14.99;46.12
38880;BME280;25887;30.194;-97.880;2024-01-07T02:10:31;98656.41;;;14.99;46.23
38880;BME280;25887;30.194;-97.880;2024-01-07T02:13:00;98645.25;;;14.95;46.10
38880;BME280;25887;30.194;-97.880;2024-01-07T02:15:26;98659.06;;;14.93;46.13
38880;BME280;25887;30.194;-97.880;2024-01-07T02:17:53;98659.94;;;14.92;46.10
38880;BME280;25887;30.194;-97.880;2024-01-07T02:20:19;98650.53;;;14.86;46.26
38880;BME280;25887;30.194;-97.880;2024-01-07T02:22:45;98660.00;;;14.86;46.33
38880;BME280;25887;30.194;-97.880;2024-01-07T02:25:11;98657.53;;;14.80;46.29
38880;BME280;25887;30.194;-97.880;2024-01-07T02:27:39;98670.47;;;14.76;46.10
38880;BME280;25887;30.194;-97.880;2024-01-07T02:30:06;98674.88;;;14.71;46.31
38880;BME280;25887;30.194;-97.880;2024-01-07T02:32:33;98676.59;;;14.69;46.45
38880;BME280;25887;30.194;-97.880;2024-01-07T02:35:02;98678.38;;;14.66;46.31
38880;BME280;25887;30.194;-97.880;2024-01-07T02:37:28;98674.97;;;14.61;46.37
38880;BME280;25887;30.194;-97.880;2024-01-07T02:39:54;98673.28;;;14.58;46.33
38880;BME280;25887;30.194;-97.880;2024-01-07T02:42:20;98675.06;;;14.53;46.26
38880;BME280;25887;30.194;-97.880;2024-01-07T02:44:47;98678.56;;;14.51;46.27
38880;BME280;25887;30.194;-97.880;2024-01-07T02:47:13;98676.88;;;14.43;46.52
38880;BME280;25887;30.194;-97.880;2024-01-07T02:49:39;98686.41;;;14.38;46.43
38880;BME280;25887;30.194;-97.880;2024-01-07T02:52:05;98691.59;;;14.35;46.33
38880;BME280;25887;30.194;-97.880;2024-01-07T02:54:31;98693.38;;;14.29;46.56
38880;BME280;25887;30.194;-97.880;2024-01-07T02:56:58;98688.28;;;14.21;46.77
38880;BME280;25887;30.194;-97.880;2024-01-07T02:59:24;98692.63;;;14.16;46.63
38880;BME280;25887;30.194;-97.880;2024-01-07T03:01:50;98693.59;;;14.09;46.38
38880;BME280;25887;30.194;-97.880;2024-01-07T03:04:16;98697.94;;;14.04;46.52
38880;BME280;25887;30.194;-97.880;2024-01-07T03:06:42;98707.44;;;14.00;46.54
38880;BME280;25887;30.194;-97.880;2024-01-07T03:09:09;98700.63;;;13.93;46.61
38880;BME280;25887;30.194;-97.880;2024-01-07T03:11:40;98687.75;;;13.87;46.76
38880;BME280;25887;30.194;-97.880;2024-01-07T03:14:07;98699.84;;;13.80;46.72
38880;BME280;25887;30.194;-97.880;2024-01-07T03:16:33;98696.44;;;13.75;47.08
38880;BME280;25887;30.194;-97.880;2024-01-07T03:18:59;98700.78;;;13.72;46.86
38880;BME280;25887;30.194;-97.880;2024-01-07T03:21:27;98704.25;;;13.66;46.64
38880;BME280;25887;30.194;-97.880;2024-01-07T03:23:53;98712.91;;;13.63;46.96
38880;BME280;25887;30.194;-97.880;2024-01-07T03:26:21;98696.56;;;13.60;47.22
38880;BME280;25887;30.194;-97.880;2024-01-07T03:28:47;98699.16;;;13.54;46.97
38880;BME280;25887;30.194;-97.880;2024-01-07T03:31:15;98699.22;;;13.46;46.96
38880;BME280;25887;30.194;-97.880;2024-01-07T03:33:45;98709.56;;;13.43;47.36
38880;BME280;25887;30.194;-97.880;2024-01-07T03:36:13;98713.91;;;13.38;47.25
38880;BME280;25887;30.194;-97.880;2024-01-07T03:38:40;98722.56;;;13.29;47.03
38880;BME280;25887;30.194;-97.880;2024-01-07T03:41:07;98722.59;;;13.23;47.28
38880;BME280;25887;30.194;-97.880;2024-01-07T03:43:33;98728.63;;;13.16;47.41
38880;BME280;25887;30.194;-97.880;2024-01-07T03:46:00;98735.53;;;13.09;47.11
38880;BME280;25887;30.194;-97.880;2024-01-07T03:48:27;98740.72;;;13.03;46.93
38880;BME280;25887;30.194;-97.880;2024-01-07T03:50:53;98734.72;;;13.00;47.31
38880;BME280;25887;30.194;-97.880;2024-01-07T03:53:19;98737.31;;;12.94;47.22
38880;BME280;25887;30.194;-97.880;2024-01-07T03:55:46;98736.50;;;12.86;47.20
38880;BME280;25887;30.194;-97.880;2024-01-07T03:58:12;98741.66;;;12.79;47.18
38880;BME280;25887;30.194;-97.880;2024-01-07T04:00:38;98735.66;;;12.71;47.22
38880;BME280;25887;30.194;-97.880;2024-01-07T04:03:05;98741.69;;;12.64;47.31
38880;BME280;25887;30.194;-97.880;2024-01-07T04:05:31;98746.88;;;12.55;47.53
38880;BME280;25887;30.194;-97.880;2024-01-07T04:08:01;98752.91;;;12.46;47.32
38880;BME280;25887;30.194;-97.880;2024-01-07T04:10:28;98753.78;;;12.38;47.21
38880;BME280;25887;30.194;-97.880;2024-01-07T04:12:54;98757.22;;;12.31;47.43
38880;BME280;25887;30.194;-97.880;2024-01-07T04:15:21;98750.38;;;12.23;47.54
38880;BME280;25887;30.194;-97.880;2024-01-07T04:17:47;98763.25;;;12.17;47.45
38880;BME280;25887;30.194;-97.880;2024-01-07T04:20:13;98752.94;;;12.10;47.46
38880;BME280;25887;30.194;-97.880;2024-01-07T04:22:40;98758.94;;;12.01;47.45
38880;BME280;25887;30.194;-97.880;2024-01-07T04:25:06;98751.19;;;11.90;47.46
38880;BME280;25887;30.194;-97.880;2024-01-07T04:27:35;98754.63;;;11.80;47.78
38880;BME280;25887;30.194;-97.880;2024-01-07T04:30:01;98746.91;;;11.76;47.38
38880;BME280;25887;30.194;-97.880;2024-01-07T04:32:28;98748.59;;;11.67;47.62
38880;BME280;25887;30.194;-97.880;2024-01-07T04:34:54;98746.88;;;11.60;47.85
38880;BME280;25887;30.194;-97.880;2024-01-07T04:37:22;98733.13;;;11.52;47.88
38880;BME280;25887;30.194;-97.880;2024-01-07T04:39:48;98744.25;;;11.45;47.92
38880;BME280;25887;30.194;-97.880;2024-01-07T04:42:15;98740.81;;;11.38;48.01
38880;BME280;25887;30.194;-97.880;2024-01-07T04:44:41;98739.06;;;11.36;48.17
38880;BME280;25887;30.194;-97.880;2024-01-07T04:49:50;98743.38;;;11.29;48.27
38880;BME280;25887;30.194;-97.880;2024-01-07T04:52:16;98746.78;;;11.27;48.18
38880;BME280;25887;30.194;-97.880;2024-01-07T04:54:44;98755.34;;;11.27;48.19
38880;BME280;25887;30.194;-97.880;2024-01-07T04:57:10;98761.34;;;11.26;48.39
38880;BME280;25887;30.194;-97.880;2024-01-07T04:59:36;98763.06;;;11.24;48.54
38880;BME280;25887;30.194;-97.880;2024-01-07T05:02:03;98763.06;;;11.23;48.42
38880;BME280;25887;30.194;-97.880;2024-01-07T05:04:29;98765.59;;;11.18;48.52
38880;BME280;25887;30.194;-97.880;2024-01-07T05:06:55;98765.59;;;11.16;48.36
38880;BME280;25887;30.194;-97.880;2024-01-07T05:09:21;98761.31;;;11.14;48.69
38880;BME280;25887;30.194;-97.880;2024-01-07T05:11:47;98776.75;;;11.14;48.46
38880;BME280;25887;30.194;-97.880;2024-01-07T05:14:14;98786.13;;;11.10;48.50
38880;BME280;25887;30.194;-97.880;2024-01-07T05:16:40;98774.16;;;11.06;48.55
38880;BME280;25887;30.194;-97.880;2024-01-07T05:19:06;98775.81;;;11.04;48.75
38880;BME280;25887;30.194;-97.880;2024-01-07T05:21:32;98783.53;;;11.00;48.82
38880;BME280;25887;30.194;-97.880;2024-01-07T05:23:58;98781.81;;;10.97;48.93
38880;BME280;25887;30.194;-97.880;2024-01-07T05:26:24;98786.91;;;10.93;48.93
38880;BME280;25887;30.194;-97.880;2024-01-07T05:28:50;98795.50;;;10.93;48.92
38880;BME280;25887;30.194;-97.880;2024-01-07T05:31:20;98808.34;;;10.93;48.84
38880;BME280;25887;30.194;-97.880;2024-01-07T05:33:47;98810.06;;;10.91;48.68
38880;BME280;25887;30.194;-97.880;2024-01-07T05:36:14;98810.06;;;10.90;48.65
38880;BME280;25887;30.194;-97.880;2024-01-07T05:38:43;98810.03;;;10.88;48.90
38880;BME280;25887;30.194;-97.880;2024-01-07T05:41:09;98816.00;;;10.82;49.05
38880;BME280;25887;30.194;-97.880;2024-01-07T05:43:36;98804.81;;;10.76;48.89
38880;BME280;25887;30.194;-97.880;2024-01-07T05:46:03;98812.50;;;10.71;48.86
38880;BME280;25887;30.194;-97.880;2024-01-07T05:48:29;98815.88;;;10.66;48.62
38880;BME280;25887;30.194;-97.880;2024-01-07T05:50:55;98825.28;;;10.62;48.80
38880;BME280;25887;30.194;-97.880;2024-01-07T05:53:21;98821.81;;;10.55;49.04
38880;BME280;25887;30.194;-97.880;2024-01-07T05:55:47;98820.91;;;10.50;48.64
38880;BME280;25887;30.194;-97.880;2024-01-07T05:58:14;98822.59;;;10.44;48.78
38880;BME280;25887;30.194;-97.880;2024-01-07T06:00:40;98837.97;;;10.41;48.87
38880;BME280;25887;30.194;-97.880;2024-01-07T06:03:06;98837.09;;;10.37;49.15
38880;BME280;25887;30.194;-97.880;2024-01-07T06:05:32;98836.19;;;10.33;48.64
38880;BME280;25887;30.194;-97.880;2024-01-07T06:07:58;98840.47;;;10.30;48.83
38880;BME280;25887;30.194;-97.880;2024-01-07T06:10:24;98842.09;;;10.23;48.91
38880;BME280;25887;30.194;-97.880;2024-01-07T06:12:51;98838.59;;;10.17;48.98
38880;BME280;25887;30.194;-97.880;2024-01-07T06:15:17;98838.53;;;10.11;48.92
38880;BME280;25887;30.194;-97.880;2024-01-07T06:17:43;98855.63;;;10.05;48.94
38880;BME280;25887;30.194;-97.880;2024-01-07T06:20:09;98859.84;;;10.03;49.04
38880;BME280;25887;30.194;-97.880;2024-01-07T06:22:36;98868.38;;;10.01;49.25
38880;BME280;25887;30.194;-97.880;2024-01-07T06:25:02;98862.41;;;10.00;49.02
38880;BME280;25887;30.194;-97.880;2024-01-07T06:27:28;98856.38;;;9.97;48.94
38880;BME280;25887;30.194;-97.880;2024-01-07T06:29:54;98855.50;;;9.95;49.16
38880;BME280;25887;30.194;-97.880;2024-01-07T06:32:21;98869.16;;;9.94;48.73
38880;BME280;25887;30.194;-97.880;2024-01-07T06:34:47;98871.72;;;9.92;49.15
38880;BME280;25887;30.194;-97.880;2024-01-07T06:37:13;98867.38;;;9.88;49.07
38880;BME280;25887;30.194;-97.880;2024-01-07T06:39:39;98865.63;;;9.81;49.04
38880;BME280;25887;30.194;-97.880;2024-01-07T06:42:06;98870.69;;;9.76;49.03
38880;BME280;25887;30.194;-97.880;2024-01-07T06:44:32;98886.09;;;9.75;49.41
38880;BME280;25887;30.194;-97.880;2024-01-07T06:47:01;98875.78;;;9.72;49.08
38880;BME280;25887;30.194;-97.880;2024-01-07T06:49:28;98876.59;;;9.68;49.56
38880;BME280;25887;30.194;-97.880;2024-01-07T06:51:54;98873.94;;;9.62;49.02
38880;BME280;25887;30.194;-97.880;2024-01-07T06:54:20;98874.81;;;9.61;49.53
38880;BME280;25887;30.194;-97.880;2024-01-07T06:56:46;98879.91;;;9.58;49.56
38880;BME280;25887;30.194;-97.880;2024-01-07T06:59:12;98879.84;;;9.55;49.20
38880;BME280;25887;30.194;-97.880;2024-01-07T07:01:39;98884.09;;;9.53;49.62
38880;BME280;25887;30.194;-97.880;2024-01-07T07:04:05;98886.59;;;9.48;49.62
38880;BME280;25887;30.194;-97.880;2024-01-07T07:06:31;98884.88;;;9.45;49.22
38880;BME280;25887;30.194;-97.880;2024-01-07T07:08:57;98889.97;;;9.42;49.58
38880;BME280;25887;30.194;-97.880;2024-01-07T07:11:24;98885.66;;;9.41;49.62
38880;BME280;25887;30.194;-97.880;2024-01-07T07:13:52;98888.19;;;9.38;49.48
38880;BME280;25887;30.194;-97.880;2024-01-07T07:16:18;98887.25;;;9.33;49.49
38880;BME280;25887;30.194;-97.880;2024-01-07T07:18:44;98876.97;;;9.29;49.77
38880;BME280;25887;30.194;-97.880;2024-01-07T07:21:11;98893.19;;;9.26;49.77
38880;BME280;25887;30.194;-97.880;2024-01-07T07:23:37;98888.00;;;9.23;50.01
38880;BME280;25887;30.194;-97.880;2024-01-07T07:26:03;98893.94;;;9.20;49.62
38880;BME280;25887;30.194;-97.880;2024-01-07T07:28:29;98905.91;;;9.18;49.91
38880;BME280;25887;30.194;-97.880;2024-01-07T07:30:56;98899.88;;;9.18;50.12
38880;BME280;25887;30.194;-97.880;2024-01-07T07:33:22;98900.78;;;9.18;50.10
38880;BME280;25887;30.194;-97.880;2024-01-07T07:35:48;98900.78;;;9.18;49.79
38880;BME280;25887;30.194;-97.880;2024-01-07T07:38:14;98906.78;;;9.20;49.87
38880;BME280;25887;30.194;-97.880;2024-01-07T07:41:04;98908.50;;;9.23;49.94
38880;BME280;25887;30.194;-97.880;2024-01-07T07:44:25;98901.63;;;9.19;49.80
38880;BME280;25887;30.194;-97.880;2024-01-07T07:46:51;98899.84;;;9.15;49.97
38880;BME280;25887;30.194;-97.880;2024-01-07T07:49:17;98894.66;;;9.10;49.75
38880;BME280;25887;30.194;-97.880;2024-01-07T07:51:43;98904.03;;;9.08;50.00
38880;BME280;25887;30.194;-97.880;2024-01-07T07:54:10;98901.44;;;9.05;49.97
38880;BME280;25887;30.194;-97.880;2024-01-07T07:56:36;98904.81;;;9.03;49.85
38880;BME280;25887;30.194;-97.880;2024-01-07T07:59:02;98901.34;;;8.99;49.70
38880;BME280;25887;30.194;-97.880;2024-01-07T08:01:30;98900.44;;;8.96;49.70
38880;BME280;25887;30.194;-97.880;2024-01-07T08:03:56;98901.22;;;8.91;50.25
38880;BME280;25887;30.194;-97.880;2024-01-07T08:06:23;98895.19;;;8.88;50.43
38880;BME280;25887;30.194;-97.880;2024-01-07T08:08:49;98894.25;;;8.83;50.52
38880;BME280;25887;30.194;-97.880;2024-01-07T08:11:15;98895.91;;;8.79;49.98
38880;BME280;25887;30.194;-97.880;2024-01-07T08:14:01;98896.72;;;8.78;50.67
38880;BME280;25887;30.194;-97.880;2024-01-07T08:16:27;98905.16;;;8.71;50.04
38880;BME280;25887;30.194;-97.880;2024-01-07T08:18:54;98891.44;;;8.66;50.54
38880;BME280;25887;30.194;-97.880;2024-01-07T08:21:23;98895.69;;;8.64;50.38
38880;BME280;25887;30.194;-97.880;2024-01-07T08:23:51;98891.34;;;8.61;50.30
38880;BME280;25887;30.194;-97.880;2024-01-07T08:26:19;98887.94;;;8.61;49.98
38880;BME280;25887;30.194;-97.880;2024-01-07T08:28:45;98887.91;;;8.58;50.48
38880;BME280;25887;30.194;-97.880;2024-01-07T08:31:43;98892.19;;;8.59;50.33
38880;BME280;25887;30.194;-97.880;2024-01-07T08:44:37;98896.31;;;8.51;50.04
38880;BME280;25887;30.194;-97.880;2024-01-07T08:54:07;98873.97;;;8.41;49.93
38880;BME280;25887;30.194;-97.880;2024-01-07T08:56:40;98871.34;;;8.39;50.17
38880;BME280;25887;30.194;-97.880;2024-01-07T08:59:07;98877.31;;;8.36;51.06
38880;BME280;25887;30.194;-97.880;2024-01-07T09:01:58;98867.06;;;8.36;50.90
38880;BME280;25887;30.194;-97.880;2024-01-07T09:04:26;98866.06;;;8.31;50.51
38880;BME280;25887;30.194;-97.880;2024-01-07T09:07:22;98867.00;;;8.33;50.08
38880;BME280;25887;30.194;-97.880;2024-01-07T09:09:48;98860.91;;;8.28;50.22
38880;BME280;25887;30.194;-97.880;2024-01-07T09:15:36;98872.00;;;8.27;50.85
38880;BME280;25887;30.194;-97.880;2024-01-07T09:18:03;98871.13;;;8.25;50.77
38880;BME280;25887;30.194;-97.880;2024-01-07T09:20:29;98858.28;;;8.24;50.53
38880;BME280;25887;30.194;-97.880;2024-01-07T09:22:55;98863.38;;;8.24;51.03
38880;BME280;25887;30.194;-97.880;2024-01-07T09:25:21;98866.78;;;8.21;50.63
38880;BME280;25887;30.194;-97.880;2024-01-07T09:27:48;98872.72;;;8.20;50.51
38880;BME280;25887;30.194;-97.880;2024-01-07T09:30:14;98873.56;;;8.19;50.82
38880;BME280;25887;30.194;-97.880;2024-01-07T09:32:41;98876.91;;;8.17;50.99
38880;BME280;25887;30.194;-97.880;2024-01-07T09:35:07;98875.25;;;8.17;51.66
38880;BME280;25887;30.194;-97.880;2024-01-07T09:37:35;98876.91;;;8.17;51.20
38880;BME280;25887;30.194;-97.880;2024-01-07T09:40:02;98877.72;;;8.14;51.04
38880;BME280;25887;30.194;-97.880;2024-01-07T09:42:32;98877.69;;;8.11;50.72
38880;BME280;25887;30.194;-97.880;2024-01-07T09:45:02;98872.47;;;8.05;51.13
38880;BME280;25887;30.194;-97.880;2024-01-07T09:47:31;98879.28;;;8.04;50.75
38880;BME280;25887;30.194;-97.880;2024-01-07T09:49:57;98873.22;;;8.01;50.81
38880;BME280;25887;30.194;-97.880;2024-01-07T09:52:25;98862.97;;;7.99;50.80
38880;BME280;25887;30.194;-97.880;2024-01-07T09:54:53;98871.41;;;7.94;51.08
38880;BME280;25887;30.194;-97.880;2024-01-07T09:57:22;98873.13;;;7.95;50.91
38880;BME280;25887;30.194;-97.880;2024-01-07T09:59:48;98870.50;;;7.92;51.59
38880;BME280;25887;30.194;-97.880;2024-01-07T10:02:16;98867.03;;;7.88;50.68
38880;BME280;25887;30.194;-97.880;2024-01-07T10:04:42;98872.19;;;7.91;50.69
38880;BME280;25887;30.194;-97.880;2024-01-07T10:07:10;98872.19;;;7.91;51.54
38880;BME280;25887;30.194;-97.880;2024-01-07T10:09:36;98864.53;;;7.91;51.20
38880;BME280;25887;30.194;-97.880;2024-01-07T10:12:03;98869.63;;;7.91;51.16
38880;BME280;25887;30.194;-97.880;2024-01-07T10:14:29;98868.75;;;7.89;50.93
38880;BME280;25887;30.194;-97.880;2024-01-07T10:16:56;98861.94;;;7.90;51.04
38880;BME280;25887;30.194;-97.880;2024-01-07T10:19:25;98854.16;;;7.83;51.32
38880;BME280;25887;30.194;-97.880;2024-01-07T10:22:02;98857.50;;;7.79;51.02
38880;BME280;25887;30.194;-97.880;2024-01-07T10:24:36;98856.53;;;7.73;51.28
38880;BME280;25887;30.194;-97.880;2024-01-07T10:27:06;98860.75;;;7.71;51.29
38880;BME280;25887;30.194;-97.880;2024-01-07T10:29:32;98866.66;;;7.68;50.72
38880;BME280;25887;30.194;-97.880;2024-01-07T10:32:02;98868.44;;;7.71;51.23
38880;BME280;25887;30.194;-97.880;2024-01-07T10:34:35;98866.78;;;7.74;51.22
38880;BME280;25887;30.194;-97.880;2024-01-07T10:37:03;98860.81;;;7.75;51.01
38880;BME280;25887;30.194;-97.880;2024-01-07T10:39:30;98871.06;;;7.77;51.34
38880;BME280;25887;30.194;-97.880;2024-01-07T10:41:57;98863.38;;;7.75;51.19
38880;BME280;25887;30.194;-97.880;2024-01-07T10:44:28;98863.38;;;7.75;51.43
38880;BME280;25887;30.194;-97.880;2024-01-07T10:46:56;98862.50;;;7.73;51.20
38880;BME280;25887;30.194;-97.880;2024-01-07T10:49:31;98857.38;;;7.73;50.98
38880;BME280;25887;30.194;-97.880;2024-01-07T10:52:05;98853.88;;;7.70;50.94
38880;BME280;25887;30.194;-97.880;2024-01-07T10:54:32;98848.88;;;7.74;51.13
38880;BME280;25887;30.194;-97.880;2024-01-07T10:59:45;98851.25;;;7.65;51.23
38880;BME280;25887;30.194;-97.880;2024-01-07T11:02:12;98844.44;;;7.64;52.01
38880;BME280;25887;30.194;-97.880;2024-01-07T11:04:51;98845.28;;;7.65;50.89
38880;BME280;25887;30.194;-97.880;2024-01-07T11:10:16;98848.00;;;7.74;52.00
38880;BME280;25887;30.194;-97.880;2024-01-07T11:12:56;98846.41;;;7.79;51.60
38880;BME280;25887;30.194;-97.880;2024-01-07T11:18:19;98842.19;;;7.82;51.47
38880;BME280;25887;30.194;-97.880;2024-01-07T11:20:46;98839.63;;;7.81;51.84
38880;BME280;25887;30.194;-97.880;2024-01-07T11:23:36;98853.31;;;7.85;51.54
38880;BME280;25887;30.194;-97.880;2024-01-07T11:26:07;98845.59;;;7.81;51.71
38880;BME280;25887;30.194;-97.880;2024-01-07T11:31:15;98844.72;;;7.79;51.59
38880;BME280;25887;30.194;-97.880;2024-01-07T11:33:44;98844.66;;;7.78;52.03
38880;BME280;25887;30.194;-97.880;2024-01-07T11:36:12;98840.34;;;7.74;51.44
38880;BME280;25887;30.194;-97.880;2024-01-07T11:38:49;98852.25;;;7.73;51.46
38880;BME280;25887;30.194;-97.880;2024-01-07T11:41:16;98856.44;;;7.70;51.60
38880;BME280;25887;30.194;-97.880;2024-01-07T11:43:56;98864.97;;;7.70;51.46
38880;BME280;25887;30.194;-97.880;2024-01-07T11:46:25;98860.66;;;7.66;51.32
38880;BME280;25887;30.194;-97.880;2024-01-07T11:48:56;98853.81;;;7.65;51.19
38880;BME280;25887;30.194;-97.880;2024-01-07T11:51:30;98862.31;;;7.64;51.55
38880;BME280;25887;30.194;-97.880;2024-01-07T11:54:00;98864.84;;;7.63;51.68
38880;BME280;25887;30.194;-97.880;2024-01-07T11:56:27;98870.84;;;7.63;51.61
38880;BME280;25887;30.194;-97.880;2024-01-07T11:58:54;98870.75;;;7.60;51.20
38880;BME280;25887;30.194;-97.880;2024-01-07T12:01:23;98882.66;;;7.58;51.19
38880;BME280;25887;30.194;-97.880;2024-01-07T12:03:51;98883.47;;;7.56;51.98
38880;BME280;25887;30.194;-97.880;2024-01-07T12:06:19;98896.19;;;7.54;51.66
38880;BME280;25887;30.194;-97.880;2024-01-07T12:08:46;98899.56;;;7.51;51.67
38880;BME280;25887;30.194;-97.880;2024-01-07T12:11:14;98908.94;;;7.52;51.62
38880;BME280;25887;30.194;-97.880;2024-01-07T12:13:41;98898.69;;;7.51;51.87
38880;BME280;25887;30.194;-97.880;2024-01-07T12:16:08;98909.75;;;7.50;51.74
38880;BME280;25887;30.194;-97.880;2024-01-07T12:18:42;98912.22;;;7.47;51.69
38880;BME280;25887;30.194;-97.880;2024-01-07T12:21:08;98914.69;;;7.41;51.90
38880;BME280;25887;30.194;-97.880;2024-01-07T12:23:35;98921.38;;;7.36;51.12
38880;BME280;25887;30.194;-97.880;2024-01-07T12:26:09;98927.34;;;7.35;51.64
38880;BME280;25887;30.194;-97.880;2024-01-07T12:28:37;98925.59;;;7.32;51.49
38880;BME280;25887;30.194;-97.880;2024-01-07T12:31:04;98921.19;;;7.26;51.67
38880;BME280;25887;30.194;-97.880;2024-01-07T12:33:31;98922.78;;;7.21;51.62
38880;BME280;25887;30.194;-97.880;2024-01-07T12:35:58;98923.56;;;7.17;51.44
38880;BME280;25887;30.194;-97.880;2024-01-07T12:38:24;98934.59;;;7.16;51.64
38880;BME280;25887;30.194;-97.880;2024-01-07T12:40:52;98934.53;;;7.13;51.27
38880;BME280;25887;30.194;-97.880;2024-01-07T12:43:19;98936.13;;;7.08;51.72
38880;BME280;25887;30.194;-97.880;2024-01-07T12:45:47;98942.03;;;7.07;51.56
38880;BME280;25887;30.194;-97.880;2024-01-07T12:48:13;98946.25;;;7.05;51.93
38880;BME280;25887;30.194;-97.880;2024-01-07T12:50:39;98949.63;;;7.04;51.85
38880;BME280;25887;30.194;-97.880;2024-01-07T12:53:06;98958.13;;;7.03;51.89
38880;BME280;25887;30.194;-97.880;2024-01-07T12:55:32;98964.84;;;6.99;51.60
38880;BME280;25887;30.194;-97.880;2024-01-07T12:57:58;98970.75;;;6.97;52.11
38880;BME280;25887;30.194;-97.880;2024-01-07T13:00:25;98956.25;;;6.96;52.12
38880;BME280;25887;30.194;-97.880;2024-01-07T13:02:54;98963.03;;;6.94;51.71
38880;BME280;25887;30.194;-97.880;2024-01-07T13:05:21;98962.19;;;6.93;52.33
38880;BME280;25887;30.194;-97.880;2024-01-07T13:07:47;98963.03;;;6.94;51.75
38880;BME280;25887;30.194;-97.880;2024-01-07T13:10:13;98968.06;;;6.91;51.77
38880;BME280;25887;30.194;-97.880;2024-01-07T13:12:40;98975.75;;;6.92;51.59
38880;BME280;25887;30.194;-97.880;2024-01-07T13:15:06;98980.00;;;6.92;51.59
38880;BME280;25887;30.194;-97.880;2024-01-07T13:17:33;98978.28;;;6.91;51.74
38880;BME280;25887;30.194;-97.880;2024-01-07T13:20:00;98981.63;;;6.88;51.93
38880;BME280;25887;30.194;-97.880;2024-01-07T13:22:26;98986.69;;;6.87;51.98